Aérodrome :
LOGIN :

S'inscrire | Disclaimer

   EN    FR    IT 

 










Légende :    VFR   VFR Marginal   IFR   IFR Intensif   IFR Très Intensif
Visi : 
Plafond : 
>= 8 km
>= 3000ft
5 à 8 km
1000 à 3000 ft
1500m à 5 km
500 à 1000 ft
800 à 1500m
200 à 500 ft
< 800m
< 200 ft
Symboles :   Orages  Brouillard  Fortes neiges  Fortes précipitations  Vent > 20 kt
SIGMETs :   Divers  Orages  Givrage  Turbulence  Onde Orograph.  Cendres Volcan.







- Altitude de l'aérodrome : 302 ft
- Code IATA : CGN


EDDK - Cologne Bonn

DERNIER METAR :
  • 231750Z 29016KT 9999 -RA OVC020 13/08 Q1023 TEMPO 29015G25KT

METARs EXPIRÉS :
  • 231720Z 30018G30KT 9999 OVC022 13/08 Q1023 TEMPO 29015G25KT
  • 231650Z 29014KT 9999 BKN025 13/07 Q1023 TEMPO 29015G25KT
  • 231620Z 28014KT 9999 BKN025 13/07 Q1023 NOSIG
  • 231550Z 26015KT 9999 BKN026 13/07 Q1022 NOSIG
  • 231520Z 28016KT 9999 BKN028 13/07 Q1023 TEMPO 27015G25KT

TAF TAF EDDK
Valide du 23 à 18h jusqu'au 25 à 00h UTC


231700Z 2318/2424 28015G25KT 9999 BKN020
BECMG 2318/2321 28011KT
BECMG 2323/2402 BKN012
TEMPO 2402/2410 29015G25KT BKN008
BECMG 2411/2414 BKN025
Pas de NOTAMs connus pour ce terrain.



MET'MAP, la Météo Aéronautique d'un coup d'oeil ! - Copyright ORBIFLY Décembre 2007 - Disclaimer

ORBIFLY MET'MAP TEAM :

Programmation & Développement : Alexandra Zaïnal
Conception & Développement : Baudouin d'Aumeries
Co-Programmation & Développement : Marc-Olivier Méhu
Soutien technique & logistique : Manuel Goepfert

Contact : metmap@orbifly.com




SOURCES & CREDITS :

   NOAA